sensor_id;sensor_type;location;lat;lon;timestamp;temperature;humidity
10802;DHT22;5453;50.852;7.102;2022-09-12T00:00:39;16.00;99.90
10802;DHT22;5453;50.852;7.102;2022-09-12T00:03:11;16.00;99.90
10802;DHT22;5453;50.852;7.102;2022-09-12T00:05:46;16.00;99.90
10802;DHT22;5453;50.852;7.102;2022-09-12T00:08:18;15.90;99.90
10802;DHT22;5453;50.852;7.102;2022-09-12T00:10:50;15.90;99.90
10802;DHT22;5453;50.852;7.102;2022-09-12T00:13:22;15.90;99.90
10802;DHT22;5453;50.852;7.102;2022-09-12T00:15:54;15.90;99.90
10802;DHT22;5453;50.852;7.102;2022-09-12T00:18:27;15.80;99.90
10802;DHT22;5453;50.852;7.102;2022-09-12T00:21:03;15.80;99.90
10802;DHT22;5453;50.852;7.102;2022-09-12T00:23:35;15.80;99.90
10802;DHT22;5453;50.852;7.102;2022-09-12T00:26:08;15.80;99.90
10802;DHT22;5453;50.852;7.102;2022-09-12T00:28:40;15.70;99.90
10802;DHT22;5453;50.852;7.102;2022-09-12T00:31:15;15.70;99.90
10802;DHT22;5453;50.852;7.102;2022-09-12T00:33:49;15.60;99.90
10802;DHT22;5453;50.852;7.102;2022-09-12T00:36:24;15.60;99.90
10802;DHT22;5453;50.852;7.102;2022-09-12T00:38:57;15.60;99.90
10802;DHT22;5453;50.852;7.102;2022-09-12T00:41:31;15.60;99.90
10802;DHT22;5453;50.852;7.102;2022-09-12T00:47:18;15.60;99.90
10802;DHT22;5453;50.852;7.102;2022-09-12T00:50:00;15.60;99.90
10802;DHT22;5453;50.852;7.102;2022-09-12T00:52:39;15.60;99.90
10802;DHT22;5453;50.852;7.102;2022-09-12T00:55:16;15.60;99.90
10802;DHT22;5453;50.852;7.102;2022-09-12T00:57:54;15.50;99.90
10802;DHT22;5453;50.852;7.102;2022-09-12T01:00:29;15.50;99.90
10802;DHT22;5453;50.852;7.102;2022-09-12T01:03:04;15.50;99.90
10802;DHT22;5453;50.852;7.102;2022-09-12T01:05:41;15.40;99.90
10802;DHT22;5453;50.852;7.102;2022-09-12T01:08:17;15.50;99.90
10802;DHT22;5453;50.852;7.102;2022-09-12T01:10:50;15.40;99.90
10802;DHT22;5453;50.852;7.102;2022-09-12T01:13:22;15.40;99.90
10802;DHT22;5453;50.852;7.102;2022-09-12T01:15:55;15.40;99.90
10802;DHT22;5453;50.852;7.102;2022-09-12T01:18:31;15.40;99.90
10802;DHT22;5453;50.852;7.102;2022-09-12T01:21:21;15.40;99.90
10802;DHT22;5453;50.852;7.102;2022-09-12T01:24:39;15.30;99.90
10802;DHT22;5453;50.852;7.102;2022-09-12T01:30:44;15.30;99.90
10802;DHT22;5453;50.852;7.102;2022-09-12T01:33:33;15.30;99.90
10802;DHT22;5453;50.852;7.102;2022-09-12T01:36:31;15.20;99.90
10802;DHT22;5453;50.852;7.102;2022-09-12T01:39:15;15.20;99.90
10802;DHT22;5453;50.852;7.102;2022-09-12T01:42:01;15.20;99.90
10802;DHT22;5453;50.852;7.102;2022-09-12T01:44:45;15.20;99.90
10802;DHT22;5453;50.852;7.102;2022-09-12T01:47:28;15.10;99.90
10802;DHT22;5453;50.852;7.102;2022-09-12T01:50:07;15.10;99.90
10802;DHT22;5453;50.852;7.102;2022-09-12T01:52:45;15.20;99.90
10802;DHT22;5453;50.852;7.102;2022-09-12T01:55:22;15.20;99.90
10802;DHT22;5453;50.852;7.102;2022-09-12T01:57:58;15.20;99.90
10802;DHT22;5453;50.852;7.102;2022-09-12T02:00:41;15.20;99.90
10802;DHT22;5453;50.852;7.102;2022-09-12T02:03:22;15.20;99.90
10802;DHT22;5453;50.852;7.102;2022-09-12T02:06:02;15.20;99.90
10802;DHT22;5453;50.852;7.102;2022-09-12T02:08:43;15.10;99.90
10802;DHT22;5453;50.852;7.102;2022-09-12T02:11:18;15.10;99.90
10802;DHT22;5453;50.852;7.102;2022-09-12T02:13:54;15.10;99.90
10802;DHT22;5453;50.852;7.102;2022-09-12T02:16:32;15.10;99.90
10802;DHT22;5453;50.852;7.102;2022-09-12T02:19:11;15.10;99.90
10802;DHT22;5453;50.852;7.102;2022-09-12T02:21:50;15.10;99.90
10802;DHT22;5453;50.852;7.102;2022-09-12T02:24:27;15.10;99.90
10802;DHT22;5453;50.852;7.102;2022-09-12T02:27:05;15.10;99.90
10802;DHT22;5453;50.852;7.102;2022-09-12T02:29:39;15.00;99.90
10802;DHT22;5453;50.852;7.102;2022-09-12T02:32:17;15.00;99.90
10802;DHT22;5453;50.852;7.102;2022-09-12T02:35:02;14.90;99.90
10802;DHT22;5453;50.852;7.102;2022-09-12T02:37:48;14.90;99.90
10802;DHT22;5453;50.852;7.102;2022-09-12T02:40:27;14.90;99.90
10802;DHT22;5453;50.852;7.102;2022-09-12T02:43:02;14.90;99.90
10802;DHT22;5453;50.852;7.102;2022-09-12T02:45:36;14.90;99.90
10802;DHT22;5453;50.852;7.102;2022-09-12T02:48:11;14.90;99.90
10802;DHT22;5453;50.852;7.102;2022-09-12T02:50:47;14.90;99.90
10802;DHT22;5453;50.852;7.102;2022-09-12T02:53:20;14.90;99.90
10802;DHT22;5453;50.852;7.102;2022-09-12T02:55:53;14.90;99.90
10802;DHT22;5453;50.852;7.102;2022-09-12T02:58:27;14.90;99.90
10802;DHT22;5453;50.852;7.102;2022-09-12T03:01:09;14.80;99.90
10802;DHT22;5453;50.852;7.102;2022-09-12T03:04:00;14.80;99.90
10802;DHT22;5453;50.852;7.102;2022-09-12T03:06:50;14.80;99.90
10802;DHT22;5453;50.852;7.102;2022-09-12T03:09:35;14.80;99.90
10802;DHT22;5453;50.852;7.102;2022-09-12T03:12:21;14.80;99.90
10802;DHT22;5453;50.852;7.102;2022-09-12T03:15:18;14.80;99.90
10802;DHT22;5453;50.852;7.102;2022-09-12T03:18:05;14.80;99.90
10802;DHT22;5453;50.852;7.102;2022-09-12T03:20:55;14.80;99.90
10802;DHT22;5453;50.852;7.102;2022-09-12T03:23:37;14.80;99.90
10802;DHT22;5453;50.852;7.102;2022-09-12T03:26:17;14.80;99.90
10802;DHT22;5453;50.852;7.102;2022-09-12T03:28:53;14.70;99.90
10802;DHT22;5453;50.852;7.102;2022-09-12T03:31:26;14.80;99.90
10802;DHT22;5453;50.852;7.102;2022-09-12T03:33:59;14.80;99.90
10802;DHT22;5453;50.852;7.102;2022-09-12T03:36:31;14.70;99.90
10802;DHT22;5453;50.852;7.102;2022-09-12T03:39:05;14.70;99.90
10802;DHT22;5453;50.852;7.102;2022-09-12T03:41:37;14.70;99.90
10802;DHT22;5453;50.852;7.102;2022-09-12T03:44:09;14.70;99.90
10802;DHT22;5453;50.852;7.102;2022-09-12T03:46:41;14.70;99.90
10802;DHT22;5453;50.852;7.102;2022-09-12T03:49:14;14.70;99.90
10802;DHT22;5453;50.852;7.102;2022-09-12T03:51:47;14.70;99.90
10802;DHT22;5453;50.852;7.102;2022-09-12T03:54:20;14.70;99.90
10802;DHT22;5453;50.852;7.102;2022-09-12T03:56:53;14.70;99.90
10802;DHT22;5453;50.852;7.102;2022-09-12T03:59:25;14.70;99.90
10802;DHT22;5453;50.852;7.102;2022-09-12T04:01:57;14.70;99.90
10802;DHT22;5453;50.852;7.102;2022-09-12T04:04:29;14.70;99.90
10802;DHT22;5453;50.852;7.102;2022-09-12T04:07:02;14.70;99.90
10802;DHT22;5453;50.852;7.102;2022-09-12T04:09:35;14.70;99.90
10802;DHT22;5453;50.852;7.102;2022-09-12T04:12:07;14.70;99.90
10802;DHT22;5453;50.852;7.102;2022-09-12T04:14:40;14.70;99.90
10802;DHT22;5453;50.852;7.102;2022-09-12T04:17:13;14.60;99.90
10802;DHT22;5453;50.852;7.102;2022-09-12T04:19:45;14.60;99.90
10802;DHT22;5453;50.852;7.102;2022-09-12T04:22:17;14.60;99.90
10802;DHT22;5453;50.852;7.102;2022-09-12T04:24:52;14.60;99.90
10802;DHT22;5453;50.852;7.102;2022-09-12T04:27:24;14.60;99.90
10802;DHT22;5453;50.852;7.102;2022-09-12T04:29:56;14.50;99.90
10802;DHT22;5453;50.852;7.102;2022-09-12T04:32:29;14.50;99.90
10802;DHT22;5453;50.852;7.102;2022-09-12T04:35:02;14.40;99.90
10802;DHT22;5453;50.852;7.102;2022-09-12T04:37:35;14.40;99.90
10802;DHT22;5453;50.852;7.102;2022-09-12T04:40:09;14.30;99.90
10802;DHT22;5453;50.852;7.102;2022-09-12T04:42:42;14.30;99.90
10802;DHT22;5453;50.852;7.102;2022-09-12T04:45:14;14.30;99.90
10802;DHT22;5453;50.852;7.102;2022-09-12T04:47:47;14.20;99.90
10802;DHT22;5453;50.852;7.102;2022-09-12T04:50:19;14.20;99.90
10802;DHT22;5453;50.852;7.102;2022-09-12T04:52:52;14.20;99.90
10802;DHT22;5453;50.852;7.102;2022-09-12T04:55:26;14.20;99.90
10802;DHT22;5453;50.852;7.102;2022-09-12T04:57:59;14.20;99.90
10802;DHT22;5453;50.852;7.102;2022-09-12T05:00:32;14.20;99.90
10802;DHT22;5453;50.852;7.102;2022-09-12T05:03:05;14.20;99.90
10802;DHT22;5453;50.852;7.102;2022-09-12T05:05:38;14.30;99.90
10802;DHT22;5453;50.852;7.102;2022-09-12T05:08:10;14.30;99.90
10802;DHT22;5453;50.852;7.102;2022-09-12T05:10:44;14.30;99.90
10802;DHT22;5453;50.852;7.102;2022-09-12T05:13:16;14.30;99.90
10802;DHT22;5453;50.852;7.102;2022-09-12T05:15:54;14.30;99.90
10802;DHT22;5453;50.852;7.102;2022-09-12T05:18:27;14.30;99.90
10802;DHT22;5453;50.852;7.102;2022-09-12T05:21:00;14.30;99.90
10802;DHT22;5453;50.852;7.102;2022-09-12T05:23:34;14.30;99.90
10802;DHT22;5453;50.852;7.102;2022-09-12T05:26:12;14.30;99.90
10802;DHT22;5453;50.852;7.102;2022-09-12T05:28:46;14.30;99.90
10802;DHT22;5453;50.852;7.102;2022-09-12T09:31:19;24.30;93.70
10802;DHT22;5453;50.852;7.102;2022-09-12T09:33:54;24.30;93.80
10802;DHT22;5453;50.852;7.102;2022-09-12T09:36:35;24.50;93.70
10802;DHT22;5453;50.852;7.102;2022-09-12T09:39:25;24.70;93.30
10802;DHT22;5453;50.852;7.102;2022-09-12T09:42:17;24.90;92.30
10802;DHT22;5453;50.852;7.102;2022-09-12T09:44:58;25.00;92.00
10802;DHT22;5453;50.852;7.102;2022-09-12T09:47:32;25.10;91.80
10802;DHT22;5453;50.852;7.102;2022-09-12T09:50:08;25.20;91.40
10802;DHT22;5453;50.852;7.102;2022-09-12T09:52:46;25.30;90.50
10802;DHT22;5453;50.852;7.102;2022-09-12T09:55:23;25.30;90.30
10802;DHT22;5453;50.852;7.102;2022-09-12T09:57:59;25.20;89.50
10802;DHT22;5453;50.852;7.102;2022-09-12T10:00:34;25.20;89.00
10802;DHT22;5453;50.852;7.102;2022-09-12T10:03:30;25.20;88.30
10802;DHT22;5453;50.852;7.102;2022-09-12T10:06:20;25.20;87.90
10802;DHT22;5453;50.852;7.102;2022-09-12T10:09:04;25.30;88.00
10802;DHT22;5453;50.852;7.102;2022-09-12T10:11:39;25.40;87.80
10802;DHT22;5453;50.852;7.102;2022-09-12T10:14:36;25.50;88.30
10802;DHT22;5453;50.852;7.102;2022-09-12T10:17:25;25.60;87.50
10802;DHT22;5453;50.852;7.102;2022-09-12T10:19:58;25.70;86.70
10802;DHT22;5453;50.852;7.102;2022-09-12T10:22:32;25.70;86.00
10802;DHT22;5453;50.852;7.102;2022-09-12T10:25:10;25.80;85.00
10802;DHT22;5453;50.852;7.102;2022-09-12T10:27:52;25.90;82.40
10802;DHT22;5453;50.852;7.102;2022-09-12T10:30:26;26.00;81.40
10802;DHT22;5453;50.852;7.102;2022-09-12T10:33:07;26.20;80.40
10802;DHT22;5453;50.852;7.102;2022-09-12T10:35:44;26.20;80.10
10802;DHT22;5453;50.852;7.102;2022-09-12T10:38:24;26.30;77.40
10802;DHT22;5453;50.852;7.102;2022-09-12T10:41:00;26.30;77.20
10802;DHT22;5453;50.852;7.102;2022-09-12T10:43:35;26.30;76.90
10802;DHT22;5453;50.852;7.102;2022-09-12T10:46:27;26.30;74.80
10802;DHT22;5453;50.852;7.102;2022-09-12T10:49:25;26.30;74.70
10802;DHT22;5453;50.852;7.102;2022-09-12T10:52:16;26.40;73.80
10802;DHT22;5453;50.852;7.102;2022-09-12T10:54:52;26.40;73.60
10802;DHT22;5453;50.852;7.102;2022-09-12T10:57:39;26.50;73.10
10802;DHT22;5453;50.852;7.102;2022-09-12T11:00:27;26.60;73.20
10802;DHT22;5453;50.852;7.102;2022-09-12T11:03:13;26.60;71.60
10802;DHT22;5453;50.852;7.102;2022-09-12T11:05:52;26.60;71.30
10802;DHT22;5453;50.852;7.102;2022-09-12T11:08:42;26.50;70.60
10802;DHT22;5453;50.852;7.102;2022-09-12T11:11:37;26.50;71.10
10802;DHT22;5453;50.852;7.102;2022-09-12T11:14:32;26.60;70.40
10802;DHT22;5453;50.852;7.102;2022-09-12T11:17:24;26.60;69.50
10802;DHT22;5453;50.852;7.102;2022-09-12T11:20:29;26.60;68.70
10802;DHT22;5453;50.852;7.102;2022-09-12T11:23:40;26.60;69.10
10802;DHT22;5453;50.852;7.102;2022-09-12T11:26:43;26.60;67.10
10802;DHT22;5453;50.852;7.102;2022-09-12T11:29:35;26.60;66.10
10802;DHT22;5453;50.852;7.102;2022-09-12T11:32:53;26.60;65.80
10802;DHT22;5453;50.852;7.102;2022-09-12T11:35:32;26.60;66.10
10802;DHT22;5453;50.852;7.102;2022-09-12T11:38:22;26.70;66.70
10802;DHT22;5453;50.852;7.102;2022-09-12T11:41:05;26.80;65.70
10802;DHT22;5453;50.852;7.102;2022-09-12T11:43:44;26.70;64.60
10802;DHT22;5453;50.852;7.102;2022-09-12T11:46:22;26.70;64.70
10802;DHT22;5453;50.852;7.102;2022-09-12T11:49:01;26.60;64.70
10802;DHT22;5453;50.852;7.102;2022-09-12T11:51:44;26.40;64.90
10802;DHT22;5453;50.852;7.102;2022-09-12T11:54:25;26.40;63.90
10802;DHT22;5453;50.852;7.102;2022-09-12T11:57:09;26.30;63.90
10802;DHT22;5453;50.852;7.102;2022-09-12T11:59:48;26.30;64.50
10802;DHT22;5453;50.852;7.102;2022-09-12T12:02:25;26.30;64.10
10802;DHT22;5453;50.852;7.102;2022-09-12T12:05:05;26.40;63.40
10802;DHT22;5453;50.852;7.102;2022-09-12T12:07:52;26.60;62.90
10802;DHT22;5453;50.852;7.102;2022-09-12T12:10:32;26.70;62.70
10802;DHT22;5453;50.852;7.102;2022-09-12T12:13:13;26.80;63.10
10802;DHT22;5453;50.852;7.102;2022-09-12T12:15:53;26.80;62.50
10802;DHT22;5453;50.852;7.102;2022-09-12T12:18:29;26.90;61.80
10802;DHT22;5453;50.852;7.102;2022-09-12T12:21:36;26.90;62.00
10802;DHT22;5453;50.852;7.102;2022-09-12T12:24:18;26.80;61.50
10802;DHT22;5453;50.852;7.102;2022-09-12T12:26:57;26.70;61.20
10802;DHT22;5453;50.852;7.102;2022-09-12T12:29:39;26.70;62.10
10802;DHT22;5453;50.852;7.102;2022-09-12T12:32:25;26.70;62.60
10802;DHT22;5453;50.852;7.102;2022-09-12T12:38:27;26.60;62.50
10802;DHT22;5453;50.852;7.102;2022-09-12T12:44:47;26.60;61.70
10802;DHT22;5453;50.852;7.102;2022-09-12T12:47:22;26.60;61.50
10802;DHT22;5453;50.852;7.102;2022-09-12T12:49:58;26.60;61.80
10802;DHT22;5453;50.852;7.102;2022-09-12T12:52:43;26.60;61.70
10802;DHT22;5453;50.852;7.102;2022-09-12T12:55:22;26.70;61.20
10802;DHT22;5453;50.852;7.102;2022-09-12T12:57:57;26.70;61.20
10802;DHT22;5453;50.852;7.102;2022-09-12T13:00:32;26.70;61.10
10802;DHT22;5453;50.852;7.102;2022-09-12T13:03:10;26.70;60.70
10802;DHT22;5453;50.852;7.102;2022-09-12T13:05:59;26.70;61.30
10802;DHT22;5453;50.852;7.102;2022-09-12T13:08:34;26.60;61.20
10802;DHT22;5453;50.852;7.102;2022-09-12T13:11:13;26.70;61.90
10802;DHT22;5453;50.852;7.102;2022-09-12T13:13:50;26.70;61.60
10802;DHT22;5453;50.852;7.102;2022-09-12T13:16:34;26.70;61.20
10802;DHT22;5453;50.852;7.102;2022-09-12T13:19:12;26.70;61.10
10802;DHT22;5453;50.852;7.102;2022-09-12T13:22:03;26.60;61.30
10802;DHT22;5453;50.852;7.102;2022-09-12T13:24:42;26.50;61.70
10802;DHT22;5453;50.852;7.102;2022-09-12T13:27:17;26.50;61.60
10802;DHT22;5453;50.852;7.102;2022-09-12T13:30:05;26.50;61.40
10802;DHT22;5453;50.852;7.102;2022-09-12T13:32:39;26.40;62.30
10802;DHT22;5453;50.852;7.102;2022-09-12T13:35:17;26.50;62.40
10802;DHT22;5453;50.852;7.102;2022-09-12T13:37:58;26.60;62.00
10802;DHT22;5453;50.852;7.102;2022-09-12T13:40:40;26.60;61.50
10802;DHT22;5453;50.852;7.102;2022-09-12T13:43:29;26.60;61.80
10802;DHT22;5453;50.852;7.102;2022-09-12T13:46:08;26.50;62.10
10802;DHT22;5453;50.852;7.102;2022-09-12T13:48:46;26.50;61.90
10802;DHT22;5453;50.852;7.102;2022-09-12T13:51:23;26.50;62.50
10802;DHT22;5453;50.852;7.102;2022-09-12T13:54:00;26.50;63.00
10802;DHT22;5453;50.852;7.102;2022-09-12T13:56:37;26.50;62.70
10802;DHT22;5453;50.852;7.102;2022-09-12T13:59:18;26.50;63.20
10802;DHT22;5453;50.852;7.102;2022-09-12T14:01:50;26.50;63.30
10802;DHT22;5453;50.852;7.102;2022-09-12T14:04:25;26.50;63.10
10802;DHT22;5453;50.852;7.102;2022-09-12T14:07:17;26.50;62.90
10802;DHT22;5453;50.852;7.102;2022-09-12T14:09:55;26.40;63.40
10802;DHT22;5453;50.852;7.102;2022-09-12T14:12:31;26.40;63.90
10802;DHT22;5453;50.852;7.102;2022-09-12T14:15:13;26.40;64.30
10802;DHT22;5453;50.852;7.102;2022-09-12T14:17:49;26.40;64.40
10802;DHT22;5453;50.852;7.102;2022-09-12T14:20:22;26.40;64.80
10802;DHT22;5453;50.852;7.102;2022-09-12T14:22:58;26.40;64.60
10802;DHT22;5453;50.852;7.102;2022-09-12T14:25:37;26.40;65.00
10802;DHT22;5453;50.852;7.102;2022-09-12T14:28:12;26.40;65.20
10802;DHT22;5453;50.852;7.102;2022-09-12T14:30:58;26.50;65.70
10802;DHT22;5453;50.852;7.102;2022-09-12T14:33:33;26.50;65.30
10802;DHT22;5453;50.852;7.102;2022-09-12T14:36:21;26.60;65.20
10802;DHT22;5453;50.852;7.102;2022-09-12T14:38:58;26.60;64.00
10802;DHT22;5453;50.852;7.102;2022-09-12T14:41:35;26.60;63.80
10802;DHT22;5453;50.852;7.102;2022-09-12T14:44:15;26.60;63.80
10802;DHT22;5453;50.852;7.102;2022-09-12T14:46:49;26.50;63.80
10802;DHT22;5453;50.852;7.102;2022-09-12T14:49:26;26.50;64.20
10802;DHT22;5453;50.852;7.102;2022-09-12T14:52:07;26.40;64.50
10802;DHT22;5453;50.852;7.102;2022-09-12T14:54:57;26.40;65.00
10802;DHT22;5453;50.852;7.102;2022-09-12T14:57:34;26.30;65.40
10802;DHT22;5453;50.852;7.102;2022-09-12T15:00:19;26.30;65.50
10802;DHT22;5453;50.852;7.102;2022-09-12T15:02:53;26.30;65.20
10802;DHT22;5453;50.852;7.102;2022-09-12T15:05:26;26.20;64.90
10802;DHT22;5453;50.852;7.102;2022-09-12T15:07:59;26.20;65.20
10802;DHT22;5453;50.852;7.102;2022-09-12T15:10:34;26.20;64.60
10802;DHT22;5453;50.852;7.102;2022-09-12T15:13:20;26.20;64.40
10802;DHT22;5453;50.852;7.102;2022-09-12T15:15:58;26.10;64.70
10802;DHT22;5453;50.852;7.102;2022-09-12T15:18:30;26.10;64.70
10802;DHT22;5453;50.852;7.102;2022-09-12T15:21:04;26.00;64.70
10802;DHT22;5453;50.852;7.102;2022-09-12T15:23:40;25.90;64.50
10802;DHT22;5453;50.852;7.102;2022-09-12T15:26:16;25.90;64.90
10802;DHT22;5453;50.852;7.102;2022-09-12T15:28:50;25.90;65.30
10802;DHT22;5453;50.852;7.102;2022-09-12T15:31:24;25.80;65.50
10802;DHT22;5453;50.852;7.102;2022-09-12T15:33:59;25.80;65.70
10802;DHT22;5453;50.852;7.102;2022-09-12T15:36:32;25.80;65.70
10802;DHT22;5453;50.852;7.102;2022-09-12T15:39:04;25.80;65.20
10802;DHT22;5453;50.852;7.102;2022-09-12T15:41:37;25.80;65.00
10802;DHT22;5453;50.852;7.102;2022-09-12T15:44:11;25.80;65.00
10802;DHT22;5453;50.852;7.102;2022-09-12T15:46:44;25.80;65.40
10802;DHT22;5453;50.852;7.102;2022-09-12T15:49:16;25.70;65.30
10802;DHT22;5453;50.852;7.102;2022-09-12T15:51:48;25.70;65.10
10802;DHT22;5453;50.852;7.102;2022-09-12T15:54:20;25.70;65.40
10802;DHT22;5453;50.852;7.102;2022-09-12T15:56:52;25.60;65.30
10802;DHT22;5453;50.852;7.102;2022-09-12T15:59:26;25.60;65.40
10802;DHT22;5453;50.852;7.102;2022-09-12T16:01:58;25.60;65.80
10802;DHT22;5453;50.852;7.102;2022-09-12T16:04:30;25.50;66.10
10802;DHT22;5453;50.852;7.102;2022-09-12T16:07:02;25.50;66.50
10802;DHT22;5453;50.852;7.102;2022-09-12T16:09:34;25.50;66.80
10802;DHT22;5453;50.852;7.102;2022-09-12T16:12:08;25.40;67.20
10802;DHT22;5453;50.852;7.102;2022-09-12T16:14:41;25.40;67.40
10802;DHT22;5453;50.852;7.102;2022-09-12T16:17:13;25.30;67.10
10802;DHT22;5453;50.852;7.102;2022-09-12T16:19:46;25.40;67.60
10802;DHT22;5453;50.852;7.102;2022-09-12T16:22:18;25.30;67.80
10802;DHT22;5453;50.852;7.102;2022-09-12T16:24:50;25.30;68.00
10802;DHT22;5453;50.852;7.102;2022-09-12T16:27:22;25.20;68.50
10802;DHT22;5453;50.852;7.102;2022-09-12T16:29:55;25.20;68.50
10802;DHT22;5453;50.852;7.102;2022-09-12T16:32:27;25.20;68.90
10802;DHT22;5453;50.852;7.102;2022-09-12T16:35:00;25.10;69.00
10802;DHT22;5453;50.852;7.102;2022-09-12T16:37:32;25.10;69.50
10802;DHT22;5453;50.852;7.102;2022-09-12T16:40:05;25.00;69.60
10802;DHT22;5453;50.852;7.102;2022-09-12T16:42:38;24.90;69.90
10802;DHT22;5453;50.852;7.102;2022-09-12T16:45:12;24.90;70.20
10802;DHT22;5453;50.852;7.102;2022-09-12T16:47:44;24.90;70.40
10802;DHT22;5453;50.852;7.102;2022-09-12T16:50:17;24.80;70.60
10802;DHT22;5453;50.852;7.102;2022-09-12T16:52:49;24.80;70.80
10802;DHT22;5453;50.852;7.102;2022-09-12T16:55:21;24.70;71.10
10802;DHT22;5453;50.852;7.102;2022-09-12T16:57:53;24.70;71.30
10802;DHT22;5453;50.852;7.102;2022-09-12T17:00:27;24.70;71.10
10802;DHT22;5453;50.852;7.102;2022-09-12T17:02:59;24.70;71.30
10802;DHT22;5453;50.852;7.102;2022-09-12T17:05:31;24.60;71.40
10802;DHT22;5453;50.852;7.102;2022-09-12T17:08:03;24.60;71.30
10802;DHT22;5453;50.852;7.102;2022-09-12T17:10:39;24.60;71.30
10802;DHT22;5453;50.852;7.102;2022-09-12T17:13:11;24.50;71.50
10802;DHT22;5453;50.852;7.102;2022-09-12T17:15:45;24.50;71.60
10802;DHT22;5453;50.852;7.102;2022-09-12T17:18:17;24.50;71.70
10802;DHT22;5453;50.852;7.102;2022-09-12T17:20:49;24.50;71.90
10802;DHT22;5453;50.852;7.102;2022-09-12T17:23:21;24.40;71.70
10802;DHT22;5453;50.852;7.102;2022-09-12T17:25:54;24.40;71.90
10802;DHT22;5453;50.852;7.102;2022-09-12T17:28:26;24.40;72.00
10802;DHT22;5453;50.852;7.102;2022-09-12T17:31:01;24.30;72.10
10802;DHT22;5453;50.852;7.102;2022-09-12T17:33:35;24.30;72.20
10802;DHT22;5453;50.852;7.102;2022-09-12T17:36:09;24.20;72.30
10802;DHT22;5453;50.852;7.102;2022-09-12T17:38:45;24.20;72.50
10802;DHT22;5453;50.852;7.102;2022-09-12T17:41:19;24.10;72.50
10802;DHT22;5453;50.852;7.102;2022-09-12T17:43:53;24.10;72.70
10802;DHT22;5453;50.852;7.102;2022-09-12T17:46:31;24.00;72.90
10802;DHT22;5453;50.852;7.102;2022-09-12T17:49:06;23.90;73.10
10802;DHT22;5453;50.852;7.102;2022-09-12T17:51:40;23.90;73.20
10802;DHT22;5453;50.852;7.102;2022-09-12T17:54:14;23.80;73.50
10802;DHT22;5453;50.852;7.102;2022-09-12T17:56:47;23.80;73.70
10802;DHT22;5453;50.852;7.102;2022-09-12T17:59:21;23.70;73.70
10802;DHT22;5453;50.852;7.102;2022-09-12T18:01:55;23.60;74.50
10802;DHT22;5453;50.852;7.102;2022-09-12T18:04:46;23.60;74.20
10802;DHT22;5453;50.852;7.102;2022-09-12T18:07:19;23.50;74.40
10802;DHT22;5453;50.852;7.102;2022-09-12T18:09:52;23.40;74.60
10802;DHT22;5453;50.852;7.102;2022-09-12T18:12:24;23.40;75.10
10802;DHT22;5453;50.852;7.102;2022-09-12T18:14:56;23.30;75.00
10802;DHT22;5453;50.852;7.102;2022-09-12T18:17:30;23.30;75.20
10802;DHT22;5453;50.852;7.102;2022-09-12T18:20:03;23.30;75.40
10802;DHT22;5453;50.852;7.102;2022-09-12T18:22:35;23.20;75.60
10802;DHT22;5453;50.852;7.102;2022-09-12T18:25:08;23.20;75.80
10802;DHT22;5453;50.852;7.102;2022-09-12T18:27:40;23.10;75.70
10802;DHT22;5453;50.852;7.102;2022-09-12T18:30:12;23.10;75.90
10802;DHT22;5453;50.852;7.102;2022-09-12T18:32:50;23.00;75.90
10802;DHT22;5453;50.852;7.102;2022-09-12T18:35:22;23.00;75.90
10802;DHT22;5453;50.852;7.102;2022-09-12T18:37:55;23.00;76.10
10802;DHT22;5453;50.852;7.102;2022-09-12T18:40:27;22.90;76.30
10802;DHT22;5453;50.852;7.102;2022-09-12T18:42:59;22.80;77.00
10802;DHT22;5453;50.852;7.102;2022-09-12T18:45:33;22.70;76.70
10802;DHT22;5453;50.852;7.102;2022-09-12T18:48:06;22.70;77.00
10802;DHT22;5453;50.852;7.102;2022-09-12T18:50:39;22.60;77.10
10802;DHT22;5453;50.852;7.102;2022-09-12T18:53:11;22.60;77.50
10802;DHT22;5453;50.852;7.102;2022-09-12T18:55:44;22.60;77.80
10802;DHT22;5453;50.852;7.102;2022-09-12T18:58:16;22.50;78.00
10802;DHT22;5453;50.852;7.102;2022-09-12T19:00:48;22.40;78.30
10802;DHT22;5453;50.852;7.102;2022-09-12T19:03:22;22.40;78.60
10802;DHT22;5453;50.852;7.102;2022-09-12T19:05:54;22.40;78.80
10802;DHT22;5453;50.852;7.102;2022-09-12T19:08:27;22.30;78.90
10802;DHT22;5453;50.852;7.102;2022-09-12T19:11:00;22.30;79.10
10802;DHT22;5453;50.852;7.102;2022-09-12T19:13:34;22.30;79.30
10802;DHT22;5453;50.852;7.102;2022-09-12T19:16:10;22.20;79.50
10802;DHT22;5453;50.852;7.102;2022-09-12T19:18:46;22.20;79.60
10802;DHT22;5453;50.852;7.102;2022-09-12T19:21:20;22.20;79.80
10802;DHT22;5453;50.852;7.102;2022-09-12T19:23:56;22.10;80.00
10802;DHT22;5453;50.852;7.102;2022-09-12T19:26:30;22.10;80.30
10802;DHT22;5453;50.852;7.102;2022-09-12T19:29:03;22.10;80.40
10802;DHT22;5453;50.852;7.102;2022-09-12T19:31:36;22.10;80.70
10802;DHT22;5453;50.852;7.102;2022-09-12T19:34:11;22.00;81.00
10802;DHT22;5453;50.852;7.102;2022-09-12T19:36:44;22.00;81.10
10802;DHT22;5453;50.852;7.102;2022-09-12T19:39:16;22.00;81.30
10802;DHT22;5453;50.852;7.102;2022-09-12T19:41:50;21.90;81.30
10802;DHT22;5453;50.852;7.102;2022-09-12T19:44:23;21.90;81.60
10802;DHT22;5453;50.852;7.102;2022-09-12T19:46:57;21.90;81.70
10802;DHT22;5453;50.852;7.102;2022-09-12T19:49:31;21.90;82.10
10802;DHT22;5453;50.852;7.102;2022-09-12T19:52:03;21.80;82.20
10802;DHT22;5453;50.852;7.102;2022-09-12T19:54:35;21.80;82.50
10802;DHT22;5453;50.852;7.102;2022-09-12T19:57:07;21.80;82.70
10802;DHT22;5453;50.852;7.102;2022-09-12T19:59:39;21.70;82.80
10802;DHT22;5453;50.852;7.102;2022-09-12T20:02:12;21.80;83.10
10802;DHT22;5453;50.852;7.102;2022-09-12T20:04:45;21.80;83.10
10802;DHT22;5453;50.852;7.102;2022-09-12T20:07:18;21.70;83.30
10802;DHT22;5453;50.852;7.102;2022-09-12T20:09:52;21.70;84.10
10802;DHT22;5453;50.852;7.102;2022-09-12T20:12:25;21.60;83.80
10802;DHT22;5453;50.852;7.102;2022-09-12T20:14:57;21.60;84.00
10802;DHT22;5453;50.852;7.102;2022-09-12T20:17:29;21.60;84.30
10802;DHT22;5453;50.852;7.102;2022-09-12T20:20:03;21.60;84.70
10802;DHT22;5453;50.852;7.102;2022-09-12T20:22:37;21.60;84.80
10802;DHT22;5453;50.852;7.102;2022-09-12T20:25:09;21.50;85.00
10802;DHT22;5453;50.852;7.102;2022-09-12T20:27:42;21.50;85.60
10802;DHT22;5453;50.852;7.102;2022-09-12T20:30:14;21.50;85.80
10802;DHT22;5453;50.852;7.102;2022-09-12T20:32:47;21.50;86.10
10802;DHT22;5453;50.852;7.102;2022-09-12T20:35:21;21.40;86.60
10802;DHT22;5453;50.852;7.102;2022-09-12T20:37:54;21.40;87.10
10802;DHT22;5453;50.852;7.102;2022-09-12T20:40:26;21.30;87.60
10802;DHT22;5453;50.852;7.102;2022-09-12T20:42:59;21.30;88.40
10802;DHT22;5453;50.852;7.102;2022-09-12T20:45:31;21.20;88.80
10802;DHT22;5453;50.852;7.102;2022-09-12T20:48:03;21.20;89.20
10802;DHT22;5453;50.852;7.102;2022-09-12T20:50:37;21.10;89.50
10802;DHT22;5453;50.852;7.102;2022-09-12T20:53:09;21.10;90.10
10802;DHT22;5453;50.852;7.102;2022-09-12T20:55:50;21.00;90.50
10802;DHT22;5453;50.852;7.102;2022-09-12T20:58:22;21.00;90.70
10802;DHT22;5453;50.852;7.102;2022-09-12T21:00:55;20.90;90.80